sensor_id;sensor_type;location;lat;lon;timestamp;pressure;altitude;pressure_sealevel;temperature;humidity
82293;BME280;71892;14.836;105.234;2023-08-17T00:00:48;99257.44;;;28.71;76.73
82293;BME280;71892;14.836;105.234;2023-08-17T00:03:14;99254.28;;;29.04;74.72
82293;BME280;71892;14.836;105.234;2023-08-17T00:05:40;99253.47;;;29.42;73.63
82293;BME280;71892;14.836;105.234;2023-08-17T00:08:07;99259.41;;;29.86;71.68
82293;BME280;71892;14.836;105.234;2023-08-17T00:10:33;99255.16;;;30.31;69.17
82293;BME280;71892;14.836;105.234;2023-08-17T00:12:59;99255.94;;;30.33;68.78
82293;BME280;71892;14.836;105.234;2023-08-17T00:15:26;99261.38;;;30.58;68.26
82293;BME280;71892;14.836;105.234;2023-08-17T00:17:52;99259.31;;;30.97;66.97
82293;BME280;71892;14.836;105.234;2023-08-17T00:20:18;99261.34;;;31.30;64.24
82293;BME280;71892;14.836;105.234;2023-08-17T00:22:45;99264.91;;;31.54;64.07
82293;BME280;71892;14.836;105.234;2023-08-17T00:25:11;99266.09;;;31.96;62.05
82293;BME280;71892;14.836;105.234;2023-08-17T00:27:37;99257.22;;;31.81;62.53
82293;BME280;71892;14.836;105.234;2023-08-17T00:30:04;99266.56;;;31.57;61.85
82293;BME280;71892;14.836;105.234;2023-08-17T00:32:31;99263.47;;;31.83;62.54
82293;BME280;71892;14.836;105.234;2023-08-17T00:34:57;99269.44;;;31.66;62.09
82293;BME280;71892;14.836;105.234;2023-08-17T00:37:23;99270.56;;;31.29;63.09
82293;BME280;71892;14.836;105.234;2023-08-17T00:39:49;99271.00;;;30.88;65.12
82293;BME280;71892;14.836;105.234;2023-08-17T00:42:16;99271.91;;;30.52;66.27
82293;BME280;71892;14.836;105.234;2023-08-17T00:44:42;99207.06;;;30.14;67.27
82293;BME280;71892;14.836;105.234;2023-08-17T00:47:08;99259.41;;;29.99;67.73
82293;BME280;71892;14.836;105.234;2023-08-17T00:49:35;99283.53;;;29.94;67.72
82293;BME280;71892;14.836;105.234;2023-08-17T00:52:02;99285.53;;;29.92;66.87
82293;BME280;71892;14.836;105.234;2023-08-17T00:54:30;99283.41;;;30.08;67.51
82293;BME280;71892;14.836;105.234;2023-08-17T00:56:57;99281.91;;;29.91;67.54
82293;BME280;71892;14.836;105.234;2023-08-17T00:59:25;99211.50;;;29.66;69.15
82293;BME280;71892;14.836;105.234;2023-08-17T01:01:51;99294.25;;;29.59;69.64
82293;BME280;71892;14.836;105.234;2023-08-17T01:04:17;99301.03;;;29.53;70.48
82293;BME280;71892;14.836;105.234;2023-08-17T01:06:44;99224.22;;;29.42;70.23
82293;BME280;71892;14.836;105.234;2023-08-17T01:09:10;99307.16;;;29.44;70.05
82293;BME280;71892;14.836;105.234;2023-08-17T01:14:14;99316.81;;;29.37;69.99
82293;BME280;71892;14.836;105.234;2023-08-17T01:19:13;99320.03;;;29.29;69.60
82293;BME280;71892;14.836;105.234;2023-08-17T01:21:50;99315.03;;;29.36;69.84
82293;BME280;71892;14.836;105.234;2023-08-17T01:24:20;99304.88;;;29.38;69.39
82293;BME280;71892;14.836;105.234;2023-08-17T01:26:46;99311.31;;;29.37;71.54
82293;BME280;71892;14.836;105.234;2023-08-17T01:29:13;99308.91;;;29.45;70.92
82293;BME280;71892;14.836;105.234;2023-08-17T01:32:46;99297.75;;;29.48;68.38
82293;BME280;71892;14.836;105.234;2023-08-17T01:34:48;99289.31;;;29.39;69.81
82293;BME280;71892;14.836;105.234;2023-08-17T01:37:18;99308.03;;;29.45;70.42
82293;BME280;71892;14.836;105.234;2023-08-17T01:39:49;99304.66;;;29.54;68.45
82293;BME280;71892;14.836;105.234;2023-08-17T01:42:17;99293.16;;;29.61;69.60
82293;BME280;71892;14.836;105.234;2023-08-17T01:44:44;99302.34;;;29.73;69.19
82293;BME280;71892;14.836;105.234;2023-08-17T01:47:10;99288.28;;;29.92;68.29
82293;BME280;71892;14.836;105.234;2023-08-17T01:49:37;99300.84;;;30.07;67.91
82293;BME280;71892;14.836;105.234;2023-08-17T01:52:04;99295.59;;;30.04;68.53
82293;BME280;71892;14.836;105.234;2023-08-17T01:54:30;99303.50;;;29.96;66.62
82293;BME280;71892;14.836;105.234;2023-08-17T01:56:56;99301.06;;;30.04;68.37
82293;BME280;71892;14.836;105.234;2023-08-17T01:59:23;99299.31;;;30.15;66.34
82293;BME280;71892;14.836;105.234;2023-08-17T02:01:49;99268.34;;;30.26;67.01
82293;BME280;71892;14.836;105.234;2023-08-17T02:04:16;99296.84;;;30.36;67.25
82293;BME280;71892;14.836;105.234;2023-08-17T02:06:43;99299.19;;;30.79;66.93
82293;BME280;71892;14.836;105.234;2023-08-17T02:09:09;99300.59;;;31.08;65.92
82293;BME280;71892;14.836;105.234;2023-08-17T02:11:35;99302.13;;;31.12;64.62
82293;BME280;71892;14.836;105.234;2023-08-17T02:14:01;99295.75;;;30.99;64.38
82293;BME280;71892;14.836;105.234;2023-08-17T02:16:28;99299.38;;;30.99;63.08
82293;BME280;71892;14.836;105.234;2023-08-17T02:18:54;99307.00;;;30.96;64.55
82293;BME280;71892;14.836;105.234;2023-08-17T02:21:20;99303.13;;;30.98;63.78
82293;BME280;71892;14.836;105.234;2023-08-17T02:23:50;99306.72;;;31.12;63.69
82293;BME280;71892;14.836;105.234;2023-08-17T02:26:16;99303.34;;;31.08;64.25
82293;BME280;71892;14.836;105.234;2023-08-17T02:28:42;99308.88;;;31.19;63.45
82293;BME280;71892;14.836;105.234;2023-08-17T02:31:09;99297.81;;;31.32;63.09
82293;BME280;71892;14.836;105.234;2023-08-17T02:33:35;99304.91;;;31.58;63.02
82293;BME280;71892;14.836;105.234;2023-08-17T02:36:02;99294.00;;;32.25;61.60
82293;BME280;71892;14.836;105.234;2023-08-17T02:38:29;99297.16;;;32.43;59.82
82293;BME280;71892;14.836;105.234;2023-08-17T02:40:56;99295.00;;;32.57;58.77
82293;BME280;71892;14.836;105.234;2023-08-17T02:43:22;99277.25;;;32.72;58.67
82293;BME280;71892;14.836;105.234;2023-08-17T02:45:48;99289.59;;;32.78;59.20
82293;BME280;71892;14.836;105.234;2023-08-17T02:48:15;99288.56;;;32.90;58.55
82293;BME280;71892;14.836;105.234;2023-08-17T02:50:41;99269.34;;;32.68;58.74
82293;BME280;71892;14.836;105.234;2023-08-17T02:53:07;99286.97;;;32.76;59.06
82293;BME280;71892;14.836;105.234;2023-08-17T02:55:34;99286.84;;;32.78;59.25
82293;BME280;71892;14.836;105.234;2023-08-17T02:58:00;99285.63;;;33.03;58.45
82293;BME280;71892;14.836;105.234;2023-08-17T03:00:26;99276.72;;;33.10;56.39
82293;BME280;71892;14.836;105.234;2023-08-17T03:02:53;99283.84;;;33.13;57.78
82293;BME280;71892;14.836;105.234;2023-08-17T03:05:19;99283.06;;;33.22;58.23
82293;BME280;71892;14.836;105.234;2023-08-17T03:07:46;99280.75;;;33.06;57.26
82293;BME280;71892;14.836;105.234;2023-08-17T03:10:12;99282.69;;;32.84;56.00
82293;BME280;71892;14.836;105.234;2023-08-17T03:12:39;99278.25;;;33.03;56.18
82293;BME280;71892;14.836;105.234;2023-08-17T03:15:06;99274.56;;;33.87;53.98
82293;BME280;71892;14.836;105.234;2023-08-17T03:17:33;99267.13;;;33.78;55.94
82293;BME280;71892;14.836;105.234;2023-08-17T03:19:59;99276.00;;;33.82;56.34
82293;BME280;71892;14.836;105.234;2023-08-17T03:22:25;99266.19;;;33.89;56.35
82293;BME280;71892;14.836;105.234;2023-08-17T03:24:55;99190.78;;;34.19;54.88
82293;BME280;71892;14.836;105.234;2023-08-17T03:27:21;99270.59;;;34.01;55.53
82293;BME280;71892;14.836;105.234;2023-08-17T03:29:47;99268.09;;;33.98;53.36
82293;BME280;71892;14.836;105.234;2023-08-17T03:32:14;99262.63;;;34.08;55.14
82293;BME280;71892;14.836;105.234;2023-08-17T03:34:40;99264.00;;;34.63;56.75
82293;BME280;71892;14.836;105.234;2023-08-17T03:37:06;99258.72;;;35.09;52.63
82293;BME280;71892;14.836;105.234;2023-08-17T03:39:33;99257.09;;;35.16;50.93
82293;BME280;71892;14.836;105.234;2023-08-17T03:41:59;99248.38;;;34.92;53.14
82293;BME280;71892;14.836;105.234;2023-08-17T03:44:26;99244.44;;;34.26;54.58
82293;BME280;71892;14.836;105.234;2023-08-17T03:46:52;99238.66;;;34.48;55.54
82293;BME280;71892;14.836;105.234;2023-08-17T03:49:18;99250.44;;;35.00;53.81
82293;BME280;71892;14.836;105.234;2023-08-17T03:51:45;99249.16;;;35.33;50.44
82293;BME280;71892;14.836;105.234;2023-08-17T03:54:12;99249.13;;;35.52;50.29
82293;BME280;71892;14.836;105.234;2023-08-17T03:56:39;99241.97;;;35.59;49.97
82293;BME280;71892;14.836;105.234;2023-08-17T03:59:05;99235.19;;;36.00;51.23
82293;BME280;71892;14.836;105.234;2023-08-17T04:01:31;99234.81;;;36.12;48.75
82293;BME280;71892;14.836;105.234;2023-08-17T04:03:57;99231.25;;;35.37;53.08
82293;BME280;71892;14.836;105.234;2023-08-17T04:06:24;99231.22;;;34.88;51.84
82293;BME280;71892;14.836;105.234;2023-08-17T04:08:50;99227.00;;;34.94;54.17
82293;BME280;71892;14.836;105.234;2023-08-17T04:11:16;99230.94;;;35.20;53.84
82293;BME280;71892;14.836;105.234;2023-08-17T04:13:43;99224.22;;;35.61;52.49
82293;BME280;71892;14.836;105.234;2023-08-17T04:16:09;99220.56;;;36.07;51.25
82293;BME280;71892;14.836;105.234;2023-08-17T04:18:35;99217.66;;;36.19;50.99
82293;BME280;71892;14.836;105.234;2023-08-17T04:21:02;99217.44;;;36.30;51.16
82293;BME280;71892;14.836;105.234;2023-08-17T04:23:28;99204.63;;;35.92;51.60
82293;BME280;71892;14.836;105.234;2023-08-17T04:25:54;99206.94;;;36.33;49.92
82293;BME280;71892;14.836;105.234;2023-08-17T04:28:21;99209.28;;;36.28;52.62
82293;BME280;71892;14.836;105.234;2023-08-17T04:30:47;99201.59;;;36.12;52.22
82293;BME280;71892;14.836;105.234;2023-08-17T04:33:14;99195.50;;;36.19;52.12
82293;BME280;71892;14.836;105.234;2023-08-17T04:35:40;99194.63;;;36.08;50.24
82293;BME280;71892;14.836;105.234;2023-08-17T04:38:06;99162.94;;;35.66;51.35
82293;BME280;71892;14.836;105.234;2023-08-17T04:40:33;99186.03;;;35.65;54.12
82293;BME280;71892;14.836;105.234;2023-08-17T04:42:59;99176.97;;;34.87;52.69
82293;BME280;71892;14.836;105.234;2023-08-17T04:45:26;99167.47;;;34.32;56.00
82293;BME280;71892;14.836;105.234;2023-08-17T04:47:52;99169.88;;;34.75;53.72
82293;BME280;71892;14.836;105.234;2023-08-17T04:50:18;99167.13;;;35.70;50.06
82293;BME280;71892;14.836;105.234;2023-08-17T04:52:45;99178.34;;;36.05;50.43
82293;BME280;71892;14.836;105.234;2023-08-17T04:55:13;99168.94;;;36.26;50.76
82293;BME280;71892;14.836;105.234;2023-08-17T04:57:40;99168.75;;;36.54;50.92
82293;BME280;71892;14.836;105.234;2023-08-17T05:00:06;99167.53;;;36.39;48.06
82293;BME280;71892;14.836;105.234;2023-08-17T05:02:36;99164.16;;;36.18;50.34
82293;BME280;71892;14.836;105.234;2023-08-17T05:05:06;99158.16;;;36.23;50.54
82293;BME280;71892;14.836;105.234;2023-08-17T05:07:34;99154.31;;;36.78;46.29
82293;BME280;71892;14.836;105.234;2023-08-17T05:10:01;99154.63;;;37.11;48.73
82293;BME280;71892;14.836;105.234;2023-08-17T05:12:28;99137.53;;;37.23;49.41
82293;BME280;71892;14.836;105.234;2023-08-17T05:14:54;99120.53;;;37.00;46.28
82293;BME280;71892;14.836;105.234;2023-08-17T05:17:20;99139.78;;;37.02;47.64
82293;BME280;71892;14.836;105.234;2023-08-17T05:19:47;99137.25;;;36.91;46.81
82293;BME280;71892;14.836;105.234;2023-08-17T05:22:13;99137.03;;;36.67;46.06
82293;BME280;71892;14.836;105.234;2023-08-17T05:24:39;99137.28;;;36.28;47.78
82293;BME280;71892;14.836;105.234;2023-08-17T05:27:06;99131.91;;;36.27;48.89
82293;BME280;71892;14.836;105.234;2023-08-17T05:29:32;99123.66;;;36.17;47.13
82293;BME280;71892;14.836;105.234;2023-08-17T05:31:58;99124.88;;;36.32;47.95
82293;BME280;71892;14.836;105.234;2023-08-17T05:34:25;99114.44;;;35.71;51.13
82293;BME280;71892;14.836;105.234;2023-08-17T05:36:51;99117.59;;;35.77;51.00
82293;BME280;71892;14.836;105.234;2023-08-17T05:39:18;99114.38;;;36.36;51.58
82293;BME280;71892;14.836;105.234;2023-08-17T05:41:44;99103.56;;;36.78;49.15
82293;BME280;71892;14.836;105.234;2023-08-17T05:44:10;99093.78;;;36.91;47.29
82293;BME280;71892;14.836;105.234;2023-08-17T05:46:37;99094.59;;;36.66;44.85
82293;BME280;71892;14.836;105.234;2023-08-17T05:49:04;99094.31;;;36.95;49.01
82293;BME280;71892;14.836;105.234;2023-08-17T05:51:30;99088.53;;;37.06;46.92
82293;BME280;71892;14.836;105.234;2023-08-17T05:53:57;99082.16;;;36.88;46.07
82293;BME280;71892;14.836;105.234;2023-08-17T05:56:23;99077.78;;;37.03;48.06
82293;BME280;71892;14.836;105.234;2023-08-17T05:58:49;99075.63;;;37.15;45.69
82293;BME280;71892;14.836;105.234;2023-08-17T06:01:16;99076.72;;;36.61;48.64
82293;BME280;71892;14.836;105.234;2023-08-17T06:03:42;99079.28;;;36.27;48.16
82293;BME280;71892;14.836;105.234;2023-08-17T06:06:09;99075.69;;;36.44;48.42
82293;BME280;71892;14.836;105.234;2023-08-17T06:08:35;99070.22;;;35.52;49.76
82293;BME280;71892;14.836;105.234;2023-08-17T06:11:02;99070.59;;;35.94;50.55
82293;BME280;71892;14.836;105.234;2023-08-17T06:13:28;99067.53;;;35.70;51.14
82293;BME280;71892;14.836;105.234;2023-08-17T06:15:56;99065.41;;;36.09;51.82
82293;BME280;71892;14.836;105.234;2023-08-17T06:18:23;99055.28;;;36.63;46.72
82293;BME280;71892;14.836;105.234;2023-08-17T06:20:49;99051.44;;;36.28;46.62
82293;BME280;71892;14.836;105.234;2023-08-17T06:23:19;99050.50;;;35.38;49.60
82293;BME280;71892;14.836;105.234;2023-08-17T06:25:46;99034.75;;;34.82;52.96
82293;BME280;71892;14.836;105.234;2023-08-17T06:28:13;99042.84;;;35.22;52.96
82293;BME280;71892;14.836;105.234;2023-08-17T06:30:39;99038.59;;;35.55;54.34
82293;BME280;71892;14.836;105.234;2023-08-17T06:33:05;99029.41;;;35.91;49.65
82293;BME280;71892;14.836;105.234;2023-08-17T06:35:32;99024.50;;;35.85;49.00
82293;BME280;71892;14.836;105.234;2023-08-17T06:37:59;99017.81;;;35.78;49.19
82293;BME280;71892;14.836;105.234;2023-08-17T06:40:25;99015.97;;;35.42;50.65
82293;BME280;71892;14.836;105.234;2023-08-17T06:42:51;99011.22;;;34.78;52.68
82293;BME280;71892;14.836;105.234;2023-08-17T06:45:20;99008.19;;;34.33;55.86
82293;BME280;71892;14.836;105.234;2023-08-17T06:47:46;99004.38;;;33.86;57.07
82293;BME280;71892;14.836;105.234;2023-08-17T06:50:14;98998.88;;;33.95;55.29
82293;BME280;71892;14.836;105.234;2023-08-17T06:52:40;98993.34;;;34.53;53.81
82293;BME280;71892;14.836;105.234;2023-08-17T06:55:07;98988.16;;;35.06;51.40
82293;BME280;71892;14.836;105.234;2023-08-17T06:57:33;98974.44;;;35.51;50.86
82293;BME280;71892;14.836;105.234;2023-08-17T07:00:00;98973.31;;;35.44;51.35
82293;BME280;71892;14.836;105.234;2023-08-17T07:02:26;98953.03;;;35.81;51.45
82293;BME280;71892;14.836;105.234;2023-08-17T07:04:52;98961.19;;;35.82;49.58
82293;BME280;71892;14.836;105.234;2023-08-17T07:07:19;98963.50;;;35.32;50.17
82293;BME280;71892;14.836;105.234;2023-08-17T07:09:45;98955.16;;;35.59;49.82
82293;BME280;71892;14.836;105.234;2023-08-17T07:12:11;98943.22;;;35.86;48.71
82293;BME280;71892;14.836;105.234;2023-08-17T07:14:38;98945.53;;;35.63;47.44
82293;BME280;71892;14.836;105.234;2023-08-17T07:17:04;98936.22;;;35.64;50.96
82293;BME280;71892;14.836;105.234;2023-08-17T07:19:30;98929.88;;;35.54;49.32
82293;BME280;71892;14.836;105.234;2023-08-17T07:21:57;98937.00;;;35.29;51.29
82293;BME280;71892;14.836;105.234;2023-08-17T07:24:23;98936.38;;;35.18;49.15
82293;BME280;71892;14.836;105.234;2023-08-17T07:26:49;98941.78;;;35.37;49.71
82293;BME280;71892;14.836;105.234;2023-08-17T07:29:16;98940.44;;;35.41;49.27
82293;BME280;71892;14.836;105.234;2023-08-17T07:31:42;98938.41;;;35.06;48.92
82293;BME280;71892;14.836;105.234;2023-08-17T07:34:09;98923.66;;;35.15;49.89
82293;BME280;71892;14.836;105.234;2023-08-17T07:36:36;98918.66;;;35.38;50.43
82293;BME280;71892;14.836;105.234;2023-08-17T07:39:02;98910.44;;;35.46;49.25
82293;BME280;71892;14.836;105.234;2023-08-17T07:41:29;98910.88;;;35.69;49.99
82293;BME280;71892;14.836;105.234;2023-08-17T07:43:56;98922.56;;;35.63;49.14
82293;BME280;71892;14.836;105.234;2023-08-17T07:46:22;98901.56;;;35.15;50.85
82293;BME280;71892;14.836;105.234;2023-08-17T07:48:48;98900.59;;;34.79;50.95
82293;BME280;71892;14.836;105.234;2023-08-17T07:51:15;98904.78;;;34.37;54.79
82293;BME280;71892;14.836;105.234;2023-08-17T07:53:41;98887.03;;;34.39;53.67
82293;BME280;71892;14.836;105.234;2023-08-17T07:56:08;98885.75;;;34.24;54.54
82293;BME280;71892;14.836;105.234;2023-08-17T07:58:34;98878.34;;;34.05;56.90
82293;BME280;71892;14.836;105.234;2023-08-17T08:01:00;98876.91;;;33.92;54.51
82293;BME280;71892;14.836;105.234;2023-08-17T08:03:27;98882.41;;;34.01;52.02
82293;BME280;71892;14.836;105.234;2023-08-17T08:05:53;98878.03;;;34.09;51.79
82293;BME280;71892;14.836;105.234;2023-08-17T08:08:20;98888.22;;;34.27;53.01
82293;BME280;71892;14.836;105.234;2023-08-17T08:10:46;98875.69;;;34.33;53.54
82293;BME280;71892;14.836;105.234;2023-08-17T08:13:12;98872.53;;;34.18;54.82
82293;BME280;71892;14.836;105.234;2023-08-17T08:15:39;98858.03;;;34.07;54.91
82293;BME280;71892;14.836;105.234;2023-08-17T08:18:06;98856.88;;;33.71;55.67
82293;BME280;71892;14.836;105.234;2023-08-17T08:20:32;98857.84;;;33.50;58.03
82293;BME280;71892;14.836;105.234;2023-08-17T08:22:58;98849.88;;;33.47;58.22
82293;BME280;71892;14.836;105.234;2023-08-17T08:25:25;98846.38;;;33.45;57.37
82293;BME280;71892;14.836;105.234;2023-08-17T08:27:51;98842.06;;;33.43;58.67
82293;BME280;71892;14.836;105.234;2023-08-17T08:30:17;98790.09;;;33.57;57.65
82293;BME280;71892;14.836;105.234;2023-08-17T08:32:44;98821.44;;;33.85;56.18
82293;BME280;71892;14.836;105.234;2023-08-17T08:35:10;98817.81;;;33.94;56.65
82293;BME280;71892;14.836;105.234;2023-08-17T08:37:36;98836.25;;;34.23;54.73
82293;BME280;71892;14.836;105.234;2023-08-17T08:40:03;98840.28;;;34.19;53.99
82293;BME280;71892;14.836;105.234;2023-08-17T08:42:29;98847.56;;;34.00;54.64
82293;BME280;71892;14.836;105.234;2023-08-17T08:44:56;98833.88;;;34.09;55.58
82293;BME280;71892;14.836;105.234;2023-08-17T08:47:23;98827.22;;;34.21;55.11
82293;BME280;71892;14.836;105.234;2023-08-17T08:50:02;98828.22;;;34.29;53.33
82293;BME280;71892;14.836;105.234;2023-08-17T08:52:34;98839.41;;;34.18;54.47
82293;BME280;71892;14.836;105.234;2023-08-17T08:55:11;98766.97;;;34.07;54.25
82293;BME280;71892;14.836;105.234;2023-08-17T08:57:39;98835.50;;;34.11;55.86
82293;BME280;71892;14.836;105.234;2023-08-17T09:00:07;98830.94;;;34.39;55.30
82293;BME280;71892;14.836;105.234;2023-08-17T09:02:34;98818.47;;;34.35;53.10
82293;BME280;71892;14.836;105.234;2023-08-17T09:05:01;98829.19;;;34.38;50.67
82293;BME280;71892;14.836;105.234;2023-08-17T09:07:29;98830.09;;;34.29;52.98
82293;BME280;71892;14.836;105.234;2023-08-17T09:09:56;98820.50;;;34.14;54.51
82293;BME280;71892;14.836;105.234;2023-08-17T09:12:23;98833.63;;;34.12;54.63
82293;BME280;71892;14.836;105.234;2023-08-17T09:14:49;98835.97;;;33.87;56.21
82293;BME280;71892;14.836;105.234;2023-08-17T09:17:25;98843.81;;;33.82;55.32
82293;BME280;71892;14.836;105.234;2023-08-17T09:19:53;98847.72;;;33.89;56.46
82293;BME280;71892;14.836;105.234;2023-08-17T09:22:23;98849.34;;;33.73;56.19
82293;BME280;71892;14.836;105.234;2023-08-17T09:24:50;98853.06;;;33.43;59.78
82293;BME280;71892;14.836;105.234;2023-08-17T09:27:17;98841.31;;;33.31;60.27
82293;BME280;71892;14.836;105.234;2023-08-17T09:29:43;98848.38;;;33.14;61.56
82293;BME280;71892;14.836;105.234;2023-08-17T09:32:14;98825.00;;;32.99;61.51
82293;BME280;71892;14.836;105.234;2023-08-17T09:34:43;98842.78;;;32.86;63.07
82293;BME280;71892;14.836;105.234;2023-08-17T09:37:12;98841.75;;;32.77;62.57
82293;BME280;71892;14.836;105.234;2023-08-17T09:39:39;98848.81;;;32.70;62.58
82293;BME280;71892;14.836;105.234;2023-08-17T09:42:05;98839.22;;;32.64;64.71
82293;BME280;71892;14.836;105.234;2023-08-17T09:44:33;98829.84;;;32.46;62.99
82293;BME280;71892;14.836;105.234;2023-08-17T09:47:01;98834.44;;;32.36;65.14
82293;BME280;71892;14.836;105.234;2023-08-17T09:49:31;98833.59;;;32.15;64.02
82293;BME280;71892;14.836;105.234;2023-08-17T09:52:00;98834.88;;;32.11;64.22
82293;BME280;71892;14.836;105.234;2023-08-17T09:54:31;98832.25;;;32.09;65.87
82293;BME280;71892;14.836;105.234;2023-08-17T09:56:58;98836.66;;;32.01;65.47
82293;BME280;71892;14.836;105.234;2023-08-17T09:59:24;98832.38;;;31.87;65.72
82293;BME280;71892;14.836;105.234;2023-08-17T10:01:51;98830.91;;;31.83;67.09
82293;BME280;71892;14.836;105.234;2023-08-17T10:04:21;98836.81;;;31.78;66.68
82293;BME280;71892;14.836;105.234;2023-08-17T10:07:00;98842.13;;;31.70;66.42
82293;BME280;71892;14.836;105.234;2023-08-17T10:09:42;98838.41;;;31.60;65.07
82293;BME280;71892;14.836;105.234;2023-08-17T10:12:12;98829.78;;;31.54;65.25
82293;BME280;71892;14.836;105.234;2023-08-17T10:14:45;98848.31;;;31.52;66.22
82293;BME280;71892;14.836;105.234;2023-08-17T10:17:29;98857.53;;;31.50;66.31
82293;BME280;71892;14.836;105.234;2023-08-17T10:19:58;98869.25;;;31.52;65.66
82293;BME280;71892;14.836;105.234;2023-08-17T10:22:39;98865.75;;;31.62;64.95
82293;BME280;71892;14.836;105.234;2023-08-17T10:25:09;98843.91;;;31.60;63.72
82293;BME280;71892;14.836;105.234;2023-08-17T10:27:37;98867.50;;;31.63;62.29
82293;BME280;71892;14.836;105.234;2023-08-17T10:30:06;98874.50;;;31.56;63.10
82293;BME280;71892;14.836;105.234;2023-08-17T10:32:33;98875.81;;;31.40;63.85
82293;BME280;71892;14.836;105.234;2023-08-17T10:34:59;98875.34;;;31.24;64.74
82293;BME280;71892;14.836;105.234;2023-08-17T10:37:26;98874.78;;;31.10;65.43
82293;BME280;71892;14.836;105.234;2023-08-17T10:39:53;98891.13;;;31.11;64.90
82293;BME280;71892;14.836;105.234;2023-08-17T10:42:46;98898.75;;;31.08;65.54
82293;BME280;71892;14.836;105.234;2023-08-17T10:50:31;98900.13;;;30.57;65.32
82293;BME280;71892;14.836;105.234;2023-08-17T10:53:13;98903.78;;;30.23;65.96
82293;BME280;71892;14.836;105.234;2023-08-17T10:55:47;98833.50;;;30.11;66.43
82293;BME280;71892;14.836;105.234;2023-08-17T10:58:19;98902.38;;;29.95;66.81
82293;BME280;71892;14.836;105.234;2023-08-17T11:00:46;98909.19;;;29.90;67.81
82293;BME280;71892;14.836;105.234;2023-08-17T11:03:19;98914.13;;;29.85;67.52
82293;BME280;71892;14.836;105.234;2023-08-17T11:05:47;98919.88;;;29.82;68.29
82293;BME280;71892;14.836;105.234;2023-08-17T11:08:22;98925.91;;;29.74;68.66
82293;BME280;71892;14.836;105.234;2023-08-17T11:11:06;98936.16;;;29.72;69.09
82293;BME280;71892;14.836;105.234;2023-08-17T11:13:37;98894.63;;;29.65;69.64
82293;BME280;71892;14.836;105.234;2023-08-17T11:16:05;98975.19;;;29.63;70.24
82293;BME280;71892;14.836;105.234;2023-08-17T11:18:32;98979.03;;;29.60;70.72
82293;BME280;71892;14.836;105.234;2023-08-17T11:21:00;98979.47;;;29.67;70.91
82293;BME280;71892;14.836;105.234;2023-08-17T11:23:29;98991.31;;;29.67;71.27
82293;BME280;71892;14.836;105.234;2023-08-17T11:25:56;98993.34;;;29.53;71.81
82293;BME280;71892;14.836;105.234;2023-08-17T11:28:23;98992.13;;;29.44;71.74
82293;BME280;71892;14.836;105.234;2023-08-17T11:31:01;98977.63;;;29.31;71.56
82293;BME280;71892;14.836;105.234;2023-08-17T11:33:28;98975.44;;;29.23;71.62
82293;BME280;71892;14.836;105.234;2023-08-17T11:35:56;98974.03;;;29.05;72.43
82293;BME280;71892;14.836;105.234;2023-08-17T11:38:23;98977.78;;;29.04;72.85
82293;BME280;71892;14.836;105.234;2023-08-17T11:40:49;98980.19;;;28.96;73.45
82293;BME280;71892;14.836;105.234;2023-08-17T11:43:16;98982.72;;;28.86;72.88
82293;BME280;71892;14.836;105.234;2023-08-17T11:45:43;98979.22;;;28.72;74.27
82293;BME280;71892;14.836;105.234;2023-08-17T11:48:10;98979.66;;;28.66;74.56
82293;BME280;71892;14.836;105.234;2023-08-17T11:50:36;99002.16;;;28.57;75.29
82293;BME280;71892;14.836;105.234;2023-08-17T11:53:03;99005.22;;;28.52;75.22
82293;BME280;71892;14.836;105.234;2023-08-17T11:55:30;99002.41;;;28.41;74.98
82293;BME280;71892;14.836;105.234;2023-08-17T11:57:56;99003.25;;;28.29;75.94
82293;BME280;71892;14.836;105.234;2023-08-17T12:00:23;98988.81;;;28.27;76.26
82293;BME280;71892;14.836;105.234;2023-08-17T12:02:52;98985.94;;;28.16;76.53
82293;BME280;71892;14.836;105.234;2023-08-17T12:05:22;98978.22;;;28.08;76.34
82293;BME280;71892;14.836;105.234;2023-08-17T12:07:55;98995.63;;;28.07;77.28
82293;BME280;71892;14.836;105.234;2023-08-17T12:10:21;99013.09;;;28.04;76.45
82293;BME280;71892;14.836;105.234;2023-08-17T12:12:51;99004.03;;;28.04;76.43
82293;BME280;71892;14.836;105.234;2023-08-17T12:15:17;99009.81;;;27.99;76.78
82293;BME280;71892;14.836;105.234;2023-08-17T12:17:46;99011.66;;;27.99;77.18
82293;BME280;71892;14.836;105.234;2023-08-17T12:20:19;98931.53;;;27.98;77.40
82293;BME280;71892;14.836;105.234;2023-08-17T12:22:47;99012.34;;;28.02;77.30
82293;BME280;71892;14.836;105.234;2023-08-17T12:25:14;99024.44;;;27.98;77.45
82293;BME280;71892;14.836;105.234;2023-08-17T12:27:41;99037.06;;;28.01;77.75
82293;BME280;71892;14.836;105.234;2023-08-17T12:30:33;99046.78;;;28.05;77.71
82293;BME280;71892;14.836;105.234;2023-08-17T12:33:02;99051.28;;;28.06;77.70
82293;BME280;71892;14.836;105.234;2023-08-17T12:35:29;99042.41;;;28.02;77.25
82293;BME280;71892;14.836;105.234;2023-08-17T12:37:56;99067.44;;;27.96;77.11
82293;BME280;71892;14.836;105.234;2023-08-17T12:40:22;99068.72;;;27.91;77.13
82293;BME280;71892;14.836;105.234;2023-08-17T12:42:49;99079.25;;;27.97;80.59
82293;BME280;71892;14.836;105.234;2023-08-17T12:45:16;99098.06;;;28.01;80.06
82293;BME280;71892;14.836;105.234;2023-08-17T12:47:42;99101.09;;;27.97;80.68
82293;BME280;71892;14.836;105.234;2023-08-17T12:50:09;99109.38;;;27.95;80.43
82293;BME280;71892;14.836;105.234;2023-08-17T12:52:35;99103.03;;;27.95;80.40